sensor_id;sensor_type;location;lat;lon;timestamp;P1;durP1;ratioP1;P2;durP2;ratioP2
9836;SDS011;4957;51.412;6.724;2024-02-28T00:00:30;32.53;;;15.83;;
9836;SDS011;4957;51.412;6.724;2024-02-28T00:02:55;29.33;;;16.07;;
9836;SDS011;4957;51.412;6.724;2024-02-28T00:05:21;30.30;;;15.73;;
9836;SDS011;4957;51.412;6.724;2024-02-28T00:07:47;29.70;;;16.17;;
9836;SDS011;4957;51.412;6.724;2024-02-28T00:10:13;33.07;;;16.57;;
9836;SDS011;4957;51.412;6.724;2024-02-28T00:12:39;27.47;;;14.20;;
9836;SDS011;4957;51.412;6.724;2024-02-28T00:15:05;32.73;;;15.73;;
9836;SDS011;4957;51.412;6.724;2024-02-28T00:17:35;34.70;;;16.40;;
9836;SDS011;4957;51.412;6.724;2024-02-28T00:20:06;33.03;;;16.33;;
9836;SDS011;4957;51.412;6.724;2024-02-28T00:22:32;32.23;;;16.33;;
9836;SDS011;4957;51.412;6.724;2024-02-28T00:24:58;36.47;;;16.93;;
9836;SDS011;4957;51.412;6.724;2024-02-28T00:27:25;34.03;;;15.73;;
9836;SDS011;4957;51.412;6.724;2024-02-28T00:29:51;30.00;;;15.50;;
9836;SDS011;4957;51.412;6.724;2024-02-28T00:32:17;27.43;;;13.77;;
9836;SDS011;4957;51.412;6.724;2024-02-28T00:34:43;25.97;;;13.60;;
9836;SDS011;4957;51.412;6.724;2024-02-28T00:37:09;24.63;;;13.00;;
9836;SDS011;4957;51.412;6.724;2024-02-28T00:39:34;32.00;;;15.23;;
9836;SDS011;4957;51.412;6.724;2024-02-28T00:42:00;19.30;;;10.50;;
9836;SDS011;4957;51.412;6.724;2024-02-28T00:44:26;27.17;;;12.90;;
9836;SDS011;4957;51.412;6.724;2024-02-28T00:46:51;21.87;;;11.63;;
9836;SDS011;4957;51.412;6.724;2024-02-28T00:49:17;24.67;;;12.63;;
9836;SDS011;4957;51.412;6.724;2024-02-28T00:51:43;23.00;;;12.70;;
9836;SDS011;4957;51.412;6.724;2024-02-28T00:54:08;25.37;;;13.63;;
9836;SDS011;4957;51.412;6.724;2024-02-28T00:56:34;22.17;;;12.00;;
9836;SDS011;4957;51.412;6.724;2024-02-28T00:59:00;27.67;;;14.80;;
9836;SDS011;4957;51.412;6.724;2024-02-28T01:01:25;24.17;;;12.53;;
9836;SDS011;4957;51.412;6.724;2024-02-28T01:03:51;31.40;;;15.60;;
9836;SDS011;4957;51.412;6.724;2024-02-28T01:06:17;32.33;;;16.23;;
9836;SDS011;4957;51.412;6.724;2024-02-28T01:08:42;34.67;;;15.77;;
9836;SDS011;4957;51.412;6.724;2024-02-28T01:11:08;21.97;;;12.07;;
9836;SDS011;4957;51.412;6.724;2024-02-28T01:13:34;24.50;;;12.83;;
9836;SDS011;4957;51.412;6.724;2024-02-28T01:16:00;33.20;;;15.33;;
9836;SDS011;4957;51.412;6.724;2024-02-28T01:18:26;33.33;;;15.93;;
9836;SDS011;4957;51.412;6.724;2024-02-28T01:20:55;33.47;;;16.27;;
9836;SDS011;4957;51.412;6.724;2024-02-28T01:23:21;33.13;;;15.87;;
9836;SDS011;4957;51.412;6.724;2024-02-28T01:25:48;33.03;;;15.57;;
9836;SDS011;4957;51.412;6.724;2024-02-28T01:28:14;28.50;;;15.60;;
9836;SDS011;4957;51.412;6.724;2024-02-28T01:30:39;34.00;;;16.27;;
9836;SDS011;4957;51.412;6.724;2024-02-28T01:33:05;31.77;;;16.57;;
9836;SDS011;4957;51.412;6.724;2024-02-28T01:35:31;36.80;;;16.40;;
9836;SDS011;4957;51.412;6.724;2024-02-28T01:37:56;33.40;;;17.13;;
9836;SDS011;4957;51.412;6.724;2024-02-28T01:40:22;34.33;;;17.47;;
9836;SDS011;4957;51.412;6.724;2024-02-28T01:42:48;36.03;;;16.00;;
9836;SDS011;4957;51.412;6.724;2024-02-28T01:45:14;31.87;;;15.93;;
9836;SDS011;4957;51.412;6.724;2024-02-28T01:47:43;20.13;;;11.37;;
9836;SDS011;4957;51.412;6.724;2024-02-28T01:50:11;30.83;;;14.47;;
9836;SDS011;4957;51.412;6.724;2024-02-28T01:52:38;34.00;;;16.87;;
9836;SDS011;4957;51.412;6.724;2024-02-28T01:55:04;34.00;;;15.93;;
9836;SDS011;4957;51.412;6.724;2024-02-28T01:57:31;30.90;;;14.87;;
9836;SDS011;4957;51.412;6.724;2024-02-28T01:59:58;32.80;;;15.83;;
9836;SDS011;4957;51.412;6.724;2024-02-28T02:02:25;34.57;;;16.93;;
9836;SDS011;4957;51.412;6.724;2024-02-28T02:04:51;35.30;;;17.80;;
9836;SDS011;4957;51.412;6.724;2024-02-28T02:07:20;32.40;;;16.07;;
9836;SDS011;4957;51.412;6.724;2024-02-28T02:09:46;35.17;;;17.17;;
9836;SDS011;4957;51.412;6.724;2024-02-28T02:12:11;37.83;;;16.17;;
9836;SDS011;4957;51.412;6.724;2024-02-28T02:14:37;59.13;;;17.67;;
9836;SDS011;4957;51.412;6.724;2024-02-28T02:17:03;77.13;;;17.23;;
9836;SDS011;4957;51.412;6.724;2024-02-28T02:19:29;133.40;;;18.50;;
9836;SDS011;4957;51.412;6.724;2024-02-28T02:21:57;188.33;;;17.63;;
9836;SDS011;4957;51.412;6.724;2024-02-28T02:24:23;104.50;;;17.97;;
9836;SDS011;4957;51.412;6.724;2024-02-28T02:26:49;89.30;;;15.10;;
9836;SDS011;4957;51.412;6.724;2024-02-28T02:29:19;85.87;;;16.90;;
9836;SDS011;4957;51.412;6.724;2024-02-28T02:31:45;74.07;;;16.20;;
9836;SDS011;4957;51.412;6.724;2024-02-28T02:34:10;82.27;;;16.20;;
9836;SDS011;4957;51.412;6.724;2024-02-28T02:36:36;72.00;;;16.77;;
9836;SDS011;4957;51.412;6.724;2024-02-28T02:39:02;156.73;;;17.43;;
9836;SDS011;4957;51.412;6.724;2024-02-28T02:41:28;88.83;;;17.47;;
9836;SDS011;4957;51.412;6.724;2024-02-28T02:43:53;62.17;;;16.73;;
9836;SDS011;4957;51.412;6.724;2024-02-28T02:46:19;51.27;;;16.93;;
9836;SDS011;4957;51.412;6.724;2024-02-28T02:48:45;44.73;;;15.37;;
9836;SDS011;4957;51.412;6.724;2024-02-28T02:51:10;54.23;;;15.60;;
9836;SDS011;4957;51.412;6.724;2024-02-28T02:53:36;56.93;;;15.27;;
9836;SDS011;4957;51.412;6.724;2024-02-28T02:56:05;49.27;;;16.57;;
9836;SDS011;4957;51.412;6.724;2024-02-28T02:58:31;44.90;;;16.03;;
9836;SDS011;4957;51.412;6.724;2024-02-28T03:00:56;36.20;;;14.13;;
9836;SDS011;4957;51.412;6.724;2024-02-28T03:03:22;55.50;;;17.07;;
9836;SDS011;4957;51.412;6.724;2024-02-28T03:05:48;58.77;;;15.77;;
9836;SDS011;4957;51.412;6.724;2024-02-28T03:08:14;40.10;;;16.70;;
9836;SDS011;4957;51.412;6.724;2024-02-28T03:10:40;47.37;;;16.90;;
9836;SDS011;4957;51.412;6.724;2024-02-28T03:13:06;39.10;;;16.73;;
9836;SDS011;4957;51.412;6.724;2024-02-28T03:15:32;40.73;;;17.40;;
9836;SDS011;4957;51.412;6.724;2024-02-28T03:17:59;35.53;;;14.63;;
9836;SDS011;4957;51.412;6.724;2024-02-28T03:20:25;41.00;;;17.57;;
9836;SDS011;4957;51.412;6.724;2024-02-28T03:22:51;48.87;;;18.80;;
9836;SDS011;4957;51.412;6.724;2024-02-28T03:25:16;58.43;;;21.60;;
9836;SDS011;4957;51.412;6.724;2024-02-28T03:27:42;52.87;;;20.77;;
9836;SDS011;4957;51.412;6.724;2024-02-28T03:30:08;64.27;;;21.57;;
9836;SDS011;4957;51.412;6.724;2024-02-28T03:32:34;65.23;;;21.80;;
9836;SDS011;4957;51.412;6.724;2024-02-28T03:34:59;69.63;;;23.23;;
9836;SDS011;4957;51.412;6.724;2024-02-28T03:37:25;68.90;;;23.07;;
9836;SDS011;4957;51.412;6.724;2024-02-28T03:39:51;56.70;;;22.13;;
9836;SDS011;4957;51.412;6.724;2024-02-28T03:42:17;92.73;;;26.00;;
9836;SDS011;4957;51.412;6.724;2024-02-28T03:44:42;101.87;;;27.17;;
9836;SDS011;4957;51.412;6.724;2024-02-28T03:47:08;86.53;;;24.40;;
9836;SDS011;4957;51.412;6.724;2024-02-28T03:49:34;142.13;;;31.47;;
9836;SDS011;4957;51.412;6.724;2024-02-28T03:52:00;108.90;;;31.87;;
9836;SDS011;4957;51.412;6.724;2024-02-28T03:54:26;106.90;;;28.03;;
9836;SDS011;4957;51.412;6.724;2024-02-28T03:56:52;135.77;;;31.50;;
9836;SDS011;4957;51.412;6.724;2024-02-28T03:59:17;137.23;;;31.50;;
9836;SDS011;4957;51.412;6.724;2024-02-28T04:01:43;114.90;;;31.13;;
9836;SDS011;4957;51.412;6.724;2024-02-28T04:04:09;121.93;;;30.90;;
9836;SDS011;4957;51.412;6.724;2024-02-28T04:06:35;152.87;;;29.77;;
9836;SDS011;4957;51.412;6.724;2024-02-28T04:09:01;90.80;;;30.53;;
9836;SDS011;4957;51.412;6.724;2024-02-28T04:11:28;132.60;;;28.83;;
9836;SDS011;4957;51.412;6.724;2024-02-28T04:13:53;133.60;;;30.70;;
9836;SDS011;4957;51.412;6.724;2024-02-28T04:16:19;132.60;;;31.47;;
9836;SDS011;4957;51.412;6.724;2024-02-28T04:18:44;117.70;;;29.40;;
9836;SDS011;4957;51.412;6.724;2024-02-28T04:21:10;128.60;;;30.83;;
9836;SDS011;4957;51.412;6.724;2024-02-28T04:23:36;139.70;;;28.90;;
9836;SDS011;4957;51.412;6.724;2024-02-28T04:26:03;107.10;;;29.70;;
9836;SDS011;4957;51.412;6.724;2024-02-28T04:28:32;100.50;;;29.67;;
9836;SDS011;4957;51.412;6.724;2024-02-28T04:30:59;94.87;;;28.77;;
9836;SDS011;4957;51.412;6.724;2024-02-28T04:33:25;130.07;;;30.00;;
9836;SDS011;4957;51.412;6.724;2024-02-28T04:35:50;99.17;;;30.90;;
9836;SDS011;4957;51.412;6.724;2024-02-28T04:38:16;118.43;;;29.10;;
9836;SDS011;4957;51.412;6.724;2024-02-28T04:40:42;139.67;;;30.83;;
9836;SDS011;4957;51.412;6.724;2024-02-28T04:43:07;74.23;;;27.40;;
9836;SDS011;4957;51.412;6.724;2024-02-28T04:45:33;90.83;;;26.93;;
9836;SDS011;4957;51.412;6.724;2024-02-28T04:47:59;94.97;;;30.43;;
9836;SDS011;4957;51.412;6.724;2024-02-28T04:50:24;84.20;;;28.63;;
9836;SDS011;4957;51.412;6.724;2024-02-28T04:52:52;87.77;;;29.73;;
9836;SDS011;4957;51.412;6.724;2024-02-28T04:55:18;91.47;;;29.93;;
9836;SDS011;4957;51.412;6.724;2024-02-28T04:57:43;93.50;;;30.20;;
9836;SDS011;4957;51.412;6.724;2024-02-28T05:00:10;94.07;;;28.17;;
9836;SDS011;4957;51.412;6.724;2024-02-28T05:02:37;96.70;;;30.40;;
9836;SDS011;4957;51.412;6.724;2024-02-28T05:05:02;90.70;;;28.43;;
9836;SDS011;4957;51.412;6.724;2024-02-28T05:07:28;99.40;;;28.77;;
9836;SDS011;4957;51.412;6.724;2024-02-28T05:09:54;128.30;;;29.27;;
9836;SDS011;4957;51.412;6.724;2024-02-28T05:12:20;116.00;;;27.70;;
9836;SDS011;4957;51.412;6.724;2024-02-28T05:14:45;118.03;;;29.67;;
9836;SDS011;4957;51.412;6.724;2024-02-28T05:17:11;88.83;;;27.87;;
9836;SDS011;4957;51.412;6.724;2024-02-28T05:19:38;128.67;;;29.70;;
9836;SDS011;4957;51.412;6.724;2024-02-28T05:22:04;101.80;;;28.73;;
9836;SDS011;4957;51.412;6.724;2024-02-28T05:24:30;107.93;;;30.70;;
9836;SDS011;4957;51.412;6.724;2024-02-28T05:26:56;102.07;;;30.70;;
9836;SDS011;4957;51.412;6.724;2024-02-28T05:29:21;135.60;;;31.17;;
9836;SDS011;4957;51.412;6.724;2024-02-28T05:31:47;115.77;;;31.13;;
9836;SDS011;4957;51.412;6.724;2024-02-28T05:34:12;95.77;;;29.60;;
9836;SDS011;4957;51.412;6.724;2024-02-28T05:36:40;105.00;;;32.83;;
9836;SDS011;4957;51.412;6.724;2024-02-28T05:39:06;101.97;;;31.30;;
9836;SDS011;4957;51.412;6.724;2024-02-28T05:41:33;71.33;;;28.03;;
9836;SDS011;4957;51.412;6.724;2024-02-28T05:43:59;79.00;;;27.97;;
9836;SDS011;4957;51.412;6.724;2024-02-28T05:46:25;93.70;;;30.93;;
9836;SDS011;4957;51.412;6.724;2024-02-28T05:48:50;88.87;;;28.47;;
9836;SDS011;4957;51.412;6.724;2024-02-28T05:51:16;99.87;;;31.43;;
9836;SDS011;4957;51.412;6.724;2024-02-28T05:53:42;128.13;;;32.77;;
9836;SDS011;4957;51.412;6.724;2024-02-28T05:56:08;92.23;;;33.57;;
9836;SDS011;4957;51.412;6.724;2024-02-28T05:58:38;118.47;;;31.87;;
9836;SDS011;4957;51.412;6.724;2024-02-28T06:01:10;153.43;;;34.17;;
9836;SDS011;4957;51.412;6.724;2024-02-28T06:03:37;125.80;;;36.27;;
9836;SDS011;4957;51.412;6.724;2024-02-28T06:06:03;107.87;;;33.30;;
9836;SDS011;4957;51.412;6.724;2024-02-28T06:08:37;117.77;;;38.20;;
9836;SDS011;4957;51.412;6.724;2024-02-28T06:11:04;116.77;;;37.40;;
9836;SDS011;4957;51.412;6.724;2024-02-28T06:13:30;118.70;;;35.80;;
9836;SDS011;4957;51.412;6.724;2024-02-28T06:15:56;108.40;;;34.27;;
9836;SDS011;4957;51.412;6.724;2024-02-28T06:18:22;98.73;;;34.17;;
9836;SDS011;4957;51.412;6.724;2024-02-28T06:20:51;99.80;;;33.73;;
9836;SDS011;4957;51.412;6.724;2024-02-28T06:23:18;92.57;;;36.43;;
9836;SDS011;4957;51.412;6.724;2024-02-28T06:25:44;130.43;;;37.80;;
9836;SDS011;4957;51.412;6.724;2024-02-28T06:28:09;105.50;;;36.87;;
9836;SDS011;4957;51.412;6.724;2024-02-28T06:30:35;108.30;;;38.40;;
9836;SDS011;4957;51.412;6.724;2024-02-28T06:33:01;102.27;;;31.50;;
9836;SDS011;4957;51.412;6.724;2024-02-28T06:35:27;84.73;;;31.30;;
9836;SDS011;4957;51.412;6.724;2024-02-28T06:37:52;96.80;;;31.00;;
9836;SDS011;4957;51.412;6.724;2024-02-28T06:40:19;94.30;;;28.53;;
9836;SDS011;4957;51.412;6.724;2024-02-28T06:42:45;85.60;;;28.37;;
9836;SDS011;4957;51.412;6.724;2024-02-28T06:45:11;99.50;;;25.73;;
9836;SDS011;4957;51.412;6.724;2024-02-28T06:47:37;103.10;;;29.10;;
9836;SDS011;4957;51.412;6.724;2024-02-28T06:50:03;96.10;;;29.07;;
9836;SDS011;4957;51.412;6.724;2024-02-28T06:52:30;89.23;;;29.90;;
9836;SDS011;4957;51.412;6.724;2024-02-28T06:54:56;127.13;;;29.57;;
9836;SDS011;4957;51.412;6.724;2024-02-28T06:57:22;100.23;;;29.30;;
9836;SDS011;4957;51.412;6.724;2024-02-28T06:59:47;120.93;;;30.50;;
9836;SDS011;4957;51.412;6.724;2024-02-28T07:02:13;103.23;;;30.73;;
9836;SDS011;4957;51.412;6.724;2024-02-28T07:04:39;142.73;;;31.17;;
9836;SDS011;4957;51.412;6.724;2024-02-28T07:07:07;106.70;;;30.43;;
9836;SDS011;4957;51.412;6.724;2024-02-28T07:09:32;94.23;;;30.83;;
9836;SDS011;4957;51.412;6.724;2024-02-28T07:11:58;118.03;;;31.37;;
9836;SDS011;4957;51.412;6.724;2024-02-28T07:14:25;117.57;;;31.17;;
9836;SDS011;4957;51.412;6.724;2024-02-28T07:16:51;127.40;;;33.50;;
9836;SDS011;4957;51.412;6.724;2024-02-28T07:19:17;116.30;;;32.33;;
9836;SDS011;4957;51.412;6.724;2024-02-28T07:21:43;100.70;;;32.87;;
9836;SDS011;4957;51.412;6.724;2024-02-28T07:24:09;129.07;;;36.47;;
9836;SDS011;4957;51.412;6.724;2024-02-28T07:26:35;102.87;;;32.30;;
9836;SDS011;4957;51.412;6.724;2024-02-28T07:29:01;106.27;;;32.00;;
9836;SDS011;4957;51.412;6.724;2024-02-28T07:31:27;93.70;;;30.90;;
9836;SDS011;4957;51.412;6.724;2024-02-28T07:33:53;101.60;;;33.67;;
9836;SDS011;4957;51.412;6.724;2024-02-28T07:36:19;117.57;;;36.10;;
9836;SDS011;4957;51.412;6.724;2024-02-28T07:38:45;106.60;;;34.33;;
9836;SDS011;4957;51.412;6.724;2024-02-28T07:41:11;129.30;;;36.03;;
9836;SDS011;4957;51.412;6.724;2024-02-28T07:43:36;106.47;;;31.90;;
9836;SDS011;4957;51.412;6.724;2024-02-28T07:46:06;120.13;;;35.60;;
9836;SDS011;4957;51.412;6.724;2024-02-28T07:48:33;105.53;;;32.70;;
9836;SDS011;4957;51.412;6.724;2024-02-28T07:50:59;114.63;;;32.17;;
9836;SDS011;4957;51.412;6.724;2024-02-28T07:53:25;118.37;;;34.23;;
9836;SDS011;4957;51.412;6.724;2024-02-28T07:55:51;137.40;;;38.67;;
9836;SDS011;4957;51.412;6.724;2024-02-28T07:58:17;126.20;;;35.37;;
9836;SDS011;4957;51.412;6.724;2024-02-28T08:00:43;141.47;;;36.67;;
9836;SDS011;4957;51.412;6.724;2024-02-28T08:03:09;136.07;;;36.03;;
9836;SDS011;4957;51.412;6.724;2024-02-28T08:05:35;127.90;;;34.67;;
9836;SDS011;4957;51.412;6.724;2024-02-28T08:08:07;117.93;;;32.67;;
9836;SDS011;4957;51.412;6.724;2024-02-28T08:10:33;132.70;;;39.00;;
9836;SDS011;4957;51.412;6.724;2024-02-28T08:13:00;118.00;;;34.50;;
9836;SDS011;4957;51.412;6.724;2024-02-28T08:15:26;147.07;;;39.77;;
9836;SDS011;4957;51.412;6.724;2024-02-28T08:17:52;120.93;;;32.33;;
9836;SDS011;4957;51.412;6.724;2024-02-28T08:20:18;126.87;;;34.07;;
9836;SDS011;4957;51.412;6.724;2024-02-28T08:22:44;137.50;;;37.20;;
9836;SDS011;4957;51.412;6.724;2024-02-28T08:25:11;114.67;;;32.80;;
9836;SDS011;4957;51.412;6.724;2024-02-28T08:27:37;137.50;;;36.97;;
9836;SDS011;4957;51.412;6.724;2024-02-28T08:30:03;135.40;;;38.53;;
9836;SDS011;4957;51.412;6.724;2024-02-28T08:32:31;138.00;;;38.23;;
9836;SDS011;4957;51.412;6.724;2024-02-28T08:34:57;111.93;;;34.33;;
9836;SDS011;4957;51.412;6.724;2024-02-28T08:37:23;125.17;;;36.73;;
9836;SDS011;4957;51.412;6.724;2024-02-28T08:39:49;118.37;;;34.37;;
9836;SDS011;4957;51.412;6.724;2024-02-28T08:42:15;128.37;;;36.37;;
9836;SDS011;4957;51.412;6.724;2024-02-28T08:44:41;122.53;;;35.73;;
9836;SDS011;4957;51.412;6.724;2024-02-28T08:47:06;145.70;;;40.40;;
9836;SDS011;4957;51.412;6.724;2024-02-28T08:49:38;135.37;;;39.43;;
9836;SDS011;4957;51.412;6.724;2024-02-28T08:52:04;132.50;;;36.60;;
9836;SDS011;4957;51.412;6.724;2024-02-28T08:54:30;129.77;;;37.80;;
9836;SDS011;4957;51.412;6.724;2024-02-28T08:56:56;128.83;;;39.23;;
9836;SDS011;4957;51.412;6.724;2024-02-28T08:59:21;167.40;;;42.47;;
9836;SDS011;4957;51.412;6.724;2024-02-28T09:01:47;157.53;;;41.10;;
9836;SDS011;4957;51.412;6.724;2024-02-28T09:04:14;153.70;;;38.00;;
9836;SDS011;4957;51.412;6.724;2024-02-28T09:06:39;140.40;;;38.03;;
9836;SDS011;4957;51.412;6.724;2024-02-28T09:09:06;138.67;;;38.10;;
9836;SDS011;4957;51.412;6.724;2024-02-28T09:11:31;131.37;;;38.63;;
9836;SDS011;4957;51.412;6.724;2024-02-28T09:13:57;135.70;;;38.37;;
9836;SDS011;4957;51.412;6.724;2024-02-28T09:16:23;141.73;;;38.37;;
9836;SDS011;4957;51.412;6.724;2024-02-28T09:18:48;148.20;;;42.50;;
9836;SDS011;4957;51.412;6.724;2024-02-28T09:21:14;159.40;;;40.10;;
9836;SDS011;4957;51.412;6.724;2024-02-28T09:23:40;142.50;;;38.63;;
9836;SDS011;4957;51.412;6.724;2024-02-28T09:26:06;116.60;;;35.23;;
9836;SDS011;4957;51.412;6.724;2024-02-28T09:28:32;120.40;;;35.10;;
9836;SDS011;4957;51.412;6.724;2024-02-28T09:30:58;124.17;;;35.63;;
9836;SDS011;4957;51.412;6.724;2024-02-28T09:33:24;128.27;;;34.90;;
9836;SDS011;4957;51.412;6.724;2024-02-28T09:35:50;133.83;;;36.17;;
9836;SDS011;4957;51.412;6.724;2024-02-28T09:38:16;127.33;;;38.53;;
9836;SDS011;4957;51.412;6.724;2024-02-28T09:40:42;120.07;;;33.77;;
9836;SDS011;4957;51.412;6.724;2024-02-28T09:43:15;117.23;;;35.00;;
9836;SDS011;4957;51.412;6.724;2024-02-28T09:45:54;115.87;;;33.07;;
9836;SDS011;4957;51.412;6.724;2024-02-28T09:48:26;122.60;;;36.87;;
9836;SDS011;4957;51.412;6.724;2024-02-28T09:50:56;112.07;;;32.30;;
9836;SDS011;4957;51.412;6.724;2024-02-28T09:53:22;121.87;;;35.77;;
9836;SDS011;4957;51.412;6.724;2024-02-28T09:55:51;126.17;;;35.20;;
9836;SDS011;4957;51.412;6.724;2024-02-28T09:58:18;149.50;;;39.97;;
9836;SDS011;4957;51.412;6.724;2024-02-28T10:00:46;146.43;;;40.40;;
9836;SDS011;4957;51.412;6.724;2024-02-28T10:03:21;156.07;;;40.53;;
9836;SDS011;4957;51.412;6.724;2024-02-28T10:05:49;183.10;;;45.83;;
9836;SDS011;4957;51.412;6.724;2024-02-28T10:08:15;150.40;;;40.93;;
9836;SDS011;4957;51.412;6.724;2024-02-28T10:10:47;127.17;;;35.67;;
9836;SDS011;4957;51.412;6.724;2024-02-28T10:13:13;139.20;;;38.97;;
9836;SDS011;4957;51.412;6.724;2024-02-28T10:15:42;126.13;;;38.20;;
9836;SDS011;4957;51.412;6.724;2024-02-28T10:18:08;135.60;;;41.27;;
9836;SDS011;4957;51.412;6.724;2024-02-28T10:20:34;114.90;;;39.17;;
9836;SDS011;4957;51.412;6.724;2024-02-28T10:23:03;132.77;;;40.87;;
9836;SDS011;4957;51.412;6.724;2024-02-28T10:25:41;133.10;;;43.57;;
9836;SDS011;4957;51.412;6.724;2024-02-28T10:28:10;137.30;;;45.07;;
9836;SDS011;4957;51.412;6.724;2024-02-28T10:30:42;115.47;;;40.20;;
9836;SDS011;4957;51.412;6.724;2024-02-28T10:33:15;91.23;;;32.83;;
9836;SDS011;4957;51.412;6.724;2024-02-28T10:35:41;96.63;;;36.00;;
9836;SDS011;4957;51.412;6.724;2024-02-28T10:38:12;90.47;;;34.17;;
9836;SDS011;4957;51.412;6.724;2024-02-28T10:40:41;93.03;;;33.23;;
9836;SDS011;4957;51.412;6.724;2024-02-28T10:43:08;94.60;;;33.23;;
9836;SDS011;4957;51.412;6.724;2024-02-28T10:45:37;97.17;;;33.87;;
9836;SDS011;4957;51.412;6.724;2024-02-28T10:48:04;103.37;;;34.70;;
9836;SDS011;4957;51.412;6.724;2024-02-28T10:50:30;112.43;;;38.33;;
9836;SDS011;4957;51.412;6.724;2024-02-28T10:52:58;108.13;;;37.47;;
9836;SDS011;4957;51.412;6.724;2024-02-28T10:55:27;109.13;;;35.03;;
9836;SDS011;4957;51.412;6.724;2024-02-28T10:58:03;111.20;;;36.27;;
9836;SDS011;4957;51.412;6.724;2024-02-28T11:00:35;101.67;;;34.60;;
9836;SDS011;4957;51.412;6.724;2024-02-28T11:03:13;94.10;;;30.80;;
9836;SDS011;4957;51.412;6.724;2024-02-28T11:05:42;96.13;;;37.60;;
9836;SDS011;4957;51.412;6.724;2024-02-28T11:08:11;98.47;;;36.87;;
9836;SDS011;4957;51.412;6.724;2024-02-28T11:11:01;86.57;;;33.23;;
9836;SDS011;4957;51.412;6.724;2024-02-28T11:13:33;82.23;;;31.50;;
9836;SDS011;4957;51.412;6.724;2024-02-28T11:16:09;70.27;;;30.60;;
9836;SDS011;4957;51.412;6.724;2024-02-28T11:18:35;69.10;;;28.57;;
9836;SDS011;4957;51.412;6.724;2024-02-28T11:21:01;62.30;;;27.93;;
9836;SDS011;4957;51.412;6.724;2024-02-28T11:23:35;62.97;;;26.97;;
9836;SDS011;4957;51.412;6.724;2024-02-28T11:26:03;65.17;;;27.00;;
9836;SDS011;4957;51.412;6.724;2024-02-28T11:28:28;66.43;;;26.37;;
9836;SDS011;4957;51.412;6.724;2024-02-28T11:30:54;56.97;;;26.37;;
9836;SDS011;4957;51.412;6.724;2024-02-28T11:33:35;62.53;;;27.53;;
9836;SDS011;4957;51.412;6.724;2024-02-28T11:36:05;58.27;;;26.43;;
9836;SDS011;4957;51.412;6.724;2024-02-28T11:38:31;52.47;;;24.73;;
9836;SDS011;4957;51.412;6.724;2024-02-28T11:41:03;52.57;;;24.53;;
9836;SDS011;4957;51.412;6.724;2024-02-28T11:43:32;50.80;;;23.30;;
9836;SDS011;4957;51.412;6.724;2024-02-28T11:45:59;51.87;;;24.40;;
9836;SDS011;4957;51.412;6.724;2024-02-28T11:48:25;50.07;;;23.17;;
9836;SDS011;4957;51.412;6.724;2024-02-28T11:50:54;52.20;;;24.27;;
9836;SDS011;4957;51.412;6.724;2024-02-28T11:53:19;48.77;;;24.17;;
9836;SDS011;4957;51.412;6.724;2024-02-28T11:55:46;44.73;;;21.87;;
9836;SDS011;4957;51.412;6.724;2024-02-28T11:58:13;46.43;;;22.27;;
9836;SDS011;4957;51.412;6.724;2024-02-28T12:00:56;50.47;;;24.70;;
9836;SDS011;4957;51.412;6.724;2024-02-28T12:03:22;44.93;;;22.43;;
9836;SDS011;4957;51.412;6.724;2024-02-28T12:05:51;51.00;;;23.57;;
9836;SDS011;4957;51.412;6.724;2024-02-28T12:08:18;47.07;;;24.27;;
9836;SDS011;4957;51.412;6.724;2024-02-28T12:10:44;50.63;;;24.60;;
9836;SDS011;4957;51.412;6.724;2024-02-28T12:13:19;51.73;;;25.13;;
9836;SDS011;4957;51.412;6.724;2024-02-28T12:15:45;49.53;;;23.43;;
9836;SDS011;4957;51.412;6.724;2024-02-28T12:18:12;46.93;;;22.93;;
9836;SDS011;4957;51.412;6.724;2024-02-28T12:20:40;45.93;;;22.03;;
9836;SDS011;4957;51.412;6.724;2024-02-28T12:23:06;52.47;;;23.20;;
9836;SDS011;4957;51.412;6.724;2024-02-28T12:25:33;44.77;;;21.13;;
9836;SDS011;4957;51.412;6.724;2024-02-28T12:28:00;39.30;;;20.77;;
9836;SDS011;4957;51.412;6.724;2024-02-28T12:30:26;46.10;;;21.53;;
9836;SDS011;4957;51.412;6.724;2024-02-28T12:32:52;36.30;;;19.23;;
9836;SDS011;4957;51.412;6.724;2024-02-28T12:35:17;41.47;;;19.43;;
9836;SDS011;4957;51.412;6.724;2024-02-28T12:37:43;41.57;;;20.83;;
9836;SDS011;4957;51.412;6.724;2024-02-28T12:40:09;42.90;;;19.87;;
9836;SDS011;4957;51.412;6.724;2024-02-28T12:42:35;35.57;;;19.57;;
9836;SDS011;4957;51.412;6.724;2024-02-28T12:45:01;39.07;;;20.60;;
9836;SDS011;4957;51.412;6.724;2024-02-28T12:47:28;37.27;;;19.03;;
9836;SDS011;4957;51.412;6.724;2024-02-28T12:49:56;38.37;;;19.50;;
9836;SDS011;4957;51.412;6.724;2024-02-28T12:52:22;40.13;;;19.30;;
9836;SDS011;4957;51.412;6.724;2024-02-28T12:54:49;37.50;;;18.47;;
9836;SDS011;4957;51.412;6.724;2024-02-28T12:57:15;35.07;;;18.23;;
9836;SDS011;4957;51.412;6.724;2024-02-28T12:59:41;34.73;;;18.07;;
9836;SDS011;4957;51.412;6.724;2024-02-28T13:02:08;36.77;;;18.83;;
9836;SDS011;4957;51.412;6.724;2024-02-28T13:04:35;33.90;;;18.27;;
9836;SDS011;4957;51.412;6.724;2024-02-28T13:07:00;32.03;;;16.87;;
9836;SDS011;4957;51.412;6.724;2024-02-28T13:09:26;31.07;;;16.80;;
9836;SDS011;4957;51.412;6.724;2024-02-28T13:11:52;36.33;;;17.37;;
9836;SDS011;4957;51.412;6.724;2024-02-28T13:14:17;34.30;;;18.23;;
9836;SDS011;4957;51.412;6.724;2024-02-28T13:16:44;32.03;;;16.53;;
9836;SDS011;4957;51.412;6.724;2024-02-28T13:19:09;34.30;;;18.40;;
9836;SDS011;4957;51.412;6.724;2024-02-28T13:21:35;35.10;;;17.53;;
9836;SDS011;4957;51.412;6.724;2024-02-28T13:24:02;37.23;;;19.83;;
9836;SDS011;4957;51.412;6.724;2024-02-28T13:26:29;34.87;;;17.73;;
9836;SDS011;4957;51.412;6.724;2024-02-28T13:28:55;33.33;;;16.83;;
9836;SDS011;4957;51.412;6.724;2024-02-28T13:31:20;32.03;;;17.33;;
9836;SDS011;4957;51.412;6.724;2024-02-28T13:33:46;33.10;;;18.00;;
9836;SDS011;4957;51.412;6.724;2024-02-28T13:36:13;37.20;;;18.90;;
9836;SDS011;4957;51.412;6.724;2024-02-28T13:38:39;30.70;;;17.17;;
9836;SDS011;4957;51.412;6.724;2024-02-28T13:41:04;32.80;;;18.10;;
9836;SDS011;4957;51.412;6.724;2024-02-28T13:43:30;35.63;;;18.53;;
9836;SDS011;4957;51.412;6.724;2024-02-28T13:45:56;34.83;;;17.60;;
9836;SDS011;4957;51.412;6.724;2024-02-28T13:48:25;32.17;;;17.60;;
9836;SDS011;4957;51.412;6.724;2024-02-28T13:50:53;35.50;;;16.87;;
9836;SDS011;4957;51.412;6.724;2024-02-28T13:53:19;34.77;;;17.10;;
9836;SDS011;4957;51.412;6.724;2024-02-28T13:55:45;31.77;;;16.37;;
9836;SDS011;4957;51.412;6.724;2024-02-28T13:58:11;34.43;;;17.27;;
9836;SDS011;4957;51.412;6.724;2024-02-28T14:00:38;33.77;;;15.90;;
9836;SDS011;4957;51.412;6.724;2024-02-28T14:03:04;31.23;;;16.70;;
9836;SDS011;4957;51.412;6.724;2024-02-28T14:05:33;30.70;;;15.67;;
9836;SDS011;4957;51.412;6.724;2024-02-28T14:07:59;33.00;;;15.93;;
9836;SDS011;4957;51.412;6.724;2024-02-28T14:10:25;27.83;;;15.70;;
9836;SDS011;4957;51.412;6.724;2024-02-28T14:12:51;37.40;;;17.07;;
9836;SDS011;4957;51.412;6.724;2024-02-28T14:15:20;28.07;;;15.70;;
9836;SDS011;4957;51.412;6.724;2024-02-28T14:17:47;26.17;;;14.90;;
9836;SDS011;4957;51.412;6.724;2024-02-28T14:20:13;27.87;;;15.07;;
9836;SDS011;4957;51.412;6.724;2024-02-28T14:22:39;26.43;;;14.00;;
9836;SDS011;4957;51.412;6.724;2024-02-28T14:25:16;30.83;;;14.93;;
9836;SDS011;4957;51.412;6.724;2024-02-28T14:27:46;29.90;;;15.43;;
9836;SDS011;4957;51.412;6.724;2024-02-28T14:30:13;27.87;;;14.53;;
9836;SDS011;4957;51.412;6.724;2024-02-28T14:32:39;31.57;;;14.63;;
9836;SDS011;4957;51.412;6.724;2024-02-28T14:35:06;28.17;;;14.27;;
9836;SDS011;4957;51.412;6.724;2024-02-28T14:37:36;28.97;;;13.80;;
9836;SDS011;4957;51.412;6.724;2024-02-28T14:40:04;22.80;;;12.47;;